createdAt,value
2023-05-01T00:28:02.060Z,101131.95
2023-05-01T00:30:55.756Z,101131.86
2023-05-01T00:40:04.399Z,101127.39
2023-05-01T00:43:19.345Z,101124.23
2023-05-01T00:47:29.641Z,101117.05
2023-05-01T00:51:19.070Z,101109.93
2023-05-01T00:54:48.974Z,101112.77
2023-05-01T00:58:47.525Z,101108.75
2023-05-01T01:14:51.794Z,101103.45
2023-05-01T01:23:18.840Z,101096.34
2023-05-01T01:27:47.710Z,101096.07
2023-05-01T01:31:46.249Z,101094.16
2023-05-01T01:35:57.991Z,101088.98
2023-05-01T01:39:25.861Z,101086.46
2023-05-01T01:43:12.076Z,101091.64
2023-05-01T01:46:51.526Z,101090.38
2023-05-01T01:50:22.540Z,101088.31
2023-05-01T01:53:59.118Z,101084.00
2023-05-01T01:57:59.332Z,101082.91
2023-05-01T02:01:25.302Z,101082.85
2023-05-01T02:05:51.587Z,101083.65
2023-05-01T02:10:08.471Z,101084.67
2023-05-01T02:13:30.303Z,101087.88
2023-05-01T02:17:10.243Z,101083.01
2023-05-01T02:20:37.791Z,101072.52
2023-05-01T02:24:11.915Z,101071.83
2023-05-01T02:27:21.372Z,101073.72
2023-05-01T02:31:21.516Z,101069.41
2023-05-01T02:34:17.937Z,101065.52
2023-05-01T02:37:52.748Z,101062.27
2023-05-01T02:41:36.468Z,101064.21
2023-05-01T02:45:28.087Z,101061.33
2023-05-01T02:49:14.439Z,101052.91
2023-05-01T02:52:28.243Z,101053.19
2023-05-01T02:56:30.983Z,101049.59
2023-05-01T02:59:53.673Z,101046.38
2023-05-01T03:03:24.664Z,101043.28
2023-05-01T03:06:19.761Z,101041.13
2023-05-01T03:09:30.608Z,101035.39
2023-05-01T03:12:03.604Z,101035.95
2023-05-01T03:14:55.101Z,101033.92
2023-05-01T03:18:47.502Z,101031.08
2023-05-01T03:22:01.344Z,101024.29
2023-05-01T03:25:35.054Z,101022.65
2023-05-01T03:28:33.784Z,101020.69
2023-05-01T03:31:43.108Z,101019.95
2023-05-01T03:34:47.485Z,101022.23
2023-05-01T03:37:46.627Z,101020.03
2023-05-01T03:41:26.699Z,101021.40
2023-05-01T03:44:59.775Z,101015.53
2023-05-01T03:49:08.369Z,101016.09
2023-05-01T03:52:41.749Z,101022.56
2023-05-01T03:55:38.170Z,101019.45
2023-05-01T03:58:46.121Z,101021.55
2023-05-01T04:02:22.249Z,101019.92
2023-05-01T04:06:00.632Z,101015.91
2023-05-01T04:09:34.672Z,101014.21
2023-05-01T04:12:47.406Z,101015.30
2023-05-01T04:15:45.002Z,101013.82
2023-05-01T04:19:02.191Z,101014.77
2023-05-01T04:22:14.714Z,101017.91
2023-05-01T04:26:18.309Z,101018.27
2023-05-01T04:29:50.077Z,101019.68
2023-05-01T04:33:15.683Z,101017.56
2023-05-01T04:36:57.096Z,101015.47
2023-05-01T04:40:55.127Z,101016.58
2023-05-01T04:44:44.136Z,101010.33
2023-05-01T04:48:46.134Z,101013.92
2023-05-01T04:51:33.015Z,101012.99
2023-05-01T04:55:08.401Z,101012.79
2023-05-01T05:02:46.645Z,101015.33
2023-05-01T05:53:29.435Z,101001.85
2023-05-01T05:56:34.311Z,100998.60
2023-05-01T05:59:36.698Z,100998.97
2023-05-01T06:33:36.798Z,100980.89
2023-05-01T07:00:27.692Z,100970.95
2023-05-01T07:07:07.426Z,100956.67
2023-05-01T07:22:04.407Z,100957.44
2023-05-01T13:58:34.747Z,100519.21
2023-05-01T14:05:56.496Z,100502.02
2023-05-01T14:58:26.741Z,100440.08
2023-05-01T15:01:15.494Z,100436.70
2023-05-01T15:03:50.877Z,100438.29
2023-05-01T15:06:30.464Z,100428.98
2023-05-01T15:09:07.047Z,100417.50
2023-05-01T15:11:59.104Z,100417.60
2023-05-01T15:15:09.959Z,100415.02
2023-05-01T16:22:51.036Z,100353.73
